<?xml version="1.0" encoding="UTF-8" standalone="no" ?>
<gpx xmlns="http://www.topografix.com/GPX/1/1" xmlns:xsi="http://www.w3.org/2001/XMLSchema-instance" xsi:schemaLocation="http://www.topografix.com/GPX/1/1 http://www.topografix.com/GPX/1/1/gpx.xsd" version="1.1" creator="VisuGPX - https://www.visugpx.com">
  <metadata>
    <name>112011</name>
    <desc><![CDATA[très agréable sortie 24.5]]></desc>
  </metadata>
  <trk>
    <name><![CDATA[ACTIVE LOG100950]]></name>
    <trkseg>
      <trkpt lat="48.4732" lon="-4.63801">
        <ele>78.268</ele>
        <time>2011-04-07T08:09:50Z</time>
      </trkpt>
      <trkpt lat="48.47324" lon="-4.63803">
        <ele>77.584</ele>
        <time>2011-04-07T08:09:51Z</time>
      </trkpt>
      <trkpt lat="48.47651" lon="-4.64014">
        <ele>77.029</ele>
        <time>2011-04-07T08:09:59Z</time>
      </trkpt>
      <trkpt lat="48.47692" lon="-4.64016">
        <ele>75.372</ele>
        <time>2011-04-07T08:10:04Z</time>
      </trkpt>
      <trkpt lat="48.47775" lon="-4.64024">
        <ele>75.506</ele>
        <time>2011-04-07T08:10:15Z</time>
      </trkpt>
      <trkpt lat="48.47879" lon="-4.64094">
        <ele>76.355</ele>
        <time>2011-04-07T08:10:30Z</time>
      </trkpt>
      <trkpt lat="48.47966" lon="-4.64151">
        <ele>75.49</ele>
        <time>2011-04-07T08:10:44Z</time>
      </trkpt>
      <trkpt lat="48.48068" lon="-4.64208">
        <ele>72.083</ele>
        <time>2011-04-07T08:10:57Z</time>
      </trkpt>
      <trkpt lat="48.48303" lon="-4.64342">
        <ele>71.887</ele>
        <time>2011-04-07T08:11:28Z</time>
      </trkpt>
      <trkpt lat="48.48395" lon="-4.64395">
        <ele>75.161</ele>
        <time>2011-04-07T08:11:41Z</time>
      </trkpt>
      <trkpt lat="48.48546" lon="-4.64466">
        <ele>76.617</ele>
        <time>2011-04-07T08:12:03Z</time>
      </trkpt>
      <trkpt lat="48.48733" lon="-4.64505">
        <ele>73.84</ele>
        <time>2011-04-07T08:12:27Z</time>
      </trkpt>
      <trkpt lat="48.48901" lon="-4.64539">
        <ele>72.415</ele>
        <time>2011-04-07T08:12:47Z</time>
      </trkpt>
      <trkpt lat="48.49086" lon="-4.64577">
        <ele>71.707</ele>
        <time>2011-04-07T08:13:11Z</time>
      </trkpt>
      <trkpt lat="48.49309" lon="-4.64652">
        <ele>68.747</ele>
        <time>2011-04-07T08:13:40Z</time>
      </trkpt>
      <trkpt lat="48.49459" lon="-4.64736">
        <ele>68.09</ele>
        <time>2011-04-07T08:13:59Z</time>
      </trkpt>
      <trkpt lat="48.49579" lon="-4.64837">
        <ele>68.222</ele>
        <time>2011-04-07T08:14:16Z</time>
      </trkpt>
      <trkpt lat="48.49694" lon="-4.64886">
        <ele>66.457</ele>
        <time>2011-04-07T08:14:30Z</time>
      </trkpt>
      <trkpt lat="48.4981" lon="-4.6489">
        <ele>63.294</ele>
        <time>2011-04-07T08:14:43Z</time>
      </trkpt>
      <trkpt lat="48.49957" lon="-4.64924">
        <ele>62.133</ele>
        <time>2011-04-07T08:15:00Z</time>
      </trkpt>
      <trkpt lat="48.50095" lon="-4.65001">
        <ele>60.18</ele>
        <time>2011-04-07T08:15:17Z</time>
      </trkpt>
      <trkpt lat="48.50159" lon="-4.65099">
        <ele>59.81</ele>
        <time>2011-04-07T08:15:28Z</time>
      </trkpt>
      <trkpt lat="48.50266" lon="-4.65299">
        <ele>56.769</ele>
        <time>2011-04-07T08:15:46Z</time>
      </trkpt>
      <trkpt lat="48.50345" lon="-4.65373">
        <ele>54.709</ele>
        <time>2011-04-07T08:15:56Z</time>
      </trkpt>
      <trkpt lat="48.50443" lon="-4.65385">
        <ele>55.524</ele>
        <time>2011-04-07T08:16:07Z</time>
      </trkpt>
      <trkpt lat="48.50495" lon="-4.65382">
        <ele>57.869</ele>
        <time>2011-04-07T08:16:14Z</time>
      </trkpt>
      <trkpt lat="48.50544" lon="-4.6538">
        <ele>61.032</ele>
        <time>2011-04-07T08:16:22Z</time>
      </trkpt>
      <trkpt lat="48.50607" lon="-4.65376">
        <ele>64.225</ele>
        <time>2011-04-07T08:16:33Z</time>
      </trkpt>
      <trkpt lat="48.5066" lon="-4.65372">
        <ele>67.248</ele>
        <time>2011-04-07T08:16:42Z</time>
      </trkpt>
      <trkpt lat="48.50725" lon="-4.65368">
        <ele>70.332</ele>
        <time>2011-04-07T08:16:53Z</time>
      </trkpt>
      <trkpt lat="48.50866" lon="-4.65365">
        <ele>72.209</ele>
        <time>2011-04-07T08:17:16Z</time>
      </trkpt>
      <trkpt lat="48.50965" lon="-4.65399">
        <ele>69.075</ele>
        <time>2011-04-07T08:17:30Z</time>
      </trkpt>
      <trkpt lat="48.51078" lon="-4.65482">
        <ele>65.955</ele>
        <time>2011-04-07T08:17:45Z</time>
      </trkpt>
      <trkpt lat="48.51125" lon="-4.6552">
        <ele>62.316</ele>
        <time>2011-04-07T08:17:53Z</time>
      </trkpt>
      <trkpt lat="48.51156" lon="-4.65545">
        <ele>61.281</ele>
        <time>2011-04-07T08:17:55Z</time>
      </trkpt>
      <trkpt lat="48.51299" lon="-4.65669">
        <ele>61.115</ele>
        <time>2011-04-07T08:18:14Z</time>
      </trkpt>
      <trkpt lat="48.51415" lon="-4.65808">
        <ele>62.625</ele>
        <time>2011-04-07T08:18:33Z</time>
      </trkpt>
      <trkpt lat="48.51554" lon="-4.66005">
        <ele>60.392</ele>
        <time>2011-04-07T08:18:56Z</time>
      </trkpt>
      <trkpt lat="48.51653" lon="-4.6607">
        <ele>57.452</ele>
        <time>2011-04-07T08:19:08Z</time>
      </trkpt>
      <trkpt lat="48.51751" lon="-4.66114">
        <ele>54.267</ele>
        <time>2011-04-07T08:19:19Z</time>
      </trkpt>
      <trkpt lat="48.51796" lon="-4.66135">
        <ele>52.836</ele>
        <time>2011-04-07T08:19:24Z</time>
      </trkpt>
      <trkpt lat="48.51978" lon="-4.66209">
        <ele>51.944</ele>
        <time>2011-04-07T08:19:45Z</time>
      </trkpt>
      <trkpt lat="48.52207" lon="-4.66305">
        <ele>54.399</ele>
        <time>2011-04-07T08:20:14Z</time>
      </trkpt>
      <trkpt lat="48.52228" lon="-4.66311">
        <ele>55.715</ele>
        <time>2011-04-07T08:20:17Z</time>
      </trkpt>
      <trkpt lat="48.52297" lon="-4.66328">
        <ele>59.005</ele>
        <time>2011-04-07T08:20:27Z</time>
      </trkpt>
      <trkpt lat="48.5231" lon="-4.66329">
        <ele>59.878</ele>
        <time>2011-04-07T08:20:29Z</time>
      </trkpt>
      <trkpt lat="48.52394" lon="-4.66317">
        <ele>61.491</ele>
        <time>2011-04-07T08:20:42Z</time>
      </trkpt>
      <trkpt lat="48.52549" lon="-4.6626">
        <ele>59.876</ele>
        <time>2011-04-07T08:21:05Z</time>
      </trkpt>
      <trkpt lat="48.52734" lon="-4.66159">
        <ele>58.873</ele>
        <time>2011-04-07T08:21:32Z</time>
      </trkpt>
      <trkpt lat="48.52861" lon="-4.66109">
        <ele>60.4</ele>
        <time>2011-04-07T08:21:50Z</time>
      </trkpt>
      <trkpt lat="48.52863" lon="-4.66108">
        <ele>61.073</ele>
        <time>2011-04-07T08:21:54Z</time>
      </trkpt>
      <trkpt lat="48.52893" lon="-4.66109">
        <ele>60.765</ele>
        <time>2011-04-07T08:22:00Z</time>
      </trkpt>
      <trkpt lat="48.5287" lon="-4.66126">
        <ele>60.686</ele>
        <time>2011-04-07T08:22:05Z</time>
      </trkpt>
      <trkpt lat="48.52865" lon="-4.66117">
        <ele>61.004</ele>
        <time>2011-04-07T08:22:07Z</time>
      </trkpt>
      <trkpt lat="48.52773" lon="-4.66141">
        <ele>60.237</ele>
        <time>2011-04-07T08:22:22Z</time>
      </trkpt>
      <trkpt lat="48.52669" lon="-4.66194">
        <ele>59.83</ele>
        <time>2011-04-07T08:22:39Z</time>
      </trkpt>
      <trkpt lat="48.52531" lon="-4.66268">
        <ele>61.179</ele>
        <time>2011-04-07T08:23:01Z</time>
      </trkpt>
      <trkpt lat="48.52381" lon="-4.66322">
        <ele>62.104</ele>
        <time>2011-04-07T08:23:25Z</time>
      </trkpt>
      <trkpt lat="48.52349" lon="-4.66331">
        <ele>63.161</ele>
        <time>2011-04-07T08:23:30Z</time>
      </trkpt>
      <trkpt lat="48.52322" lon="-4.66329">
        <ele>61.897</ele>
        <time>2011-04-07T08:23:34Z</time>
      </trkpt>
      <trkpt lat="48.52277" lon="-4.66326">
        <ele>58.894</ele>
        <time>2011-04-07T08:23:40Z</time>
      </trkpt>
      <trkpt lat="48.52261" lon="-4.66321">
        <ele>58.008</ele>
        <time>2011-04-07T08:23:42Z</time>
      </trkpt>
      <trkpt lat="48.52218" lon="-4.66309">
        <ele>55.423</ele>
        <time>2011-04-07T08:23:47Z</time>
      </trkpt>
      <trkpt lat="48.5208" lon="-4.66253">
        <ele>53.823</ele>
        <time>2011-04-07T08:24:04Z</time>
      </trkpt>
      <trkpt lat="48.51876" lon="-4.66166">
        <ele>54.938</ele>
        <time>2011-04-07T08:24:33Z</time>
      </trkpt>
      <trkpt lat="48.51741" lon="-4.6611">
        <ele>57.73</ele>
        <time>2011-04-07T08:24:55Z</time>
      </trkpt>
      <trkpt lat="48.51718" lon="-4.66099">
        <ele>59.069</ele>
        <time>2011-04-07T08:24:59Z</time>
      </trkpt>
      <trkpt lat="48.51599" lon="-4.66043">
        <ele>62.137</ele>
        <time>2011-04-07T08:25:21Z</time>
      </trkpt>
      <trkpt lat="48.51516" lon="-4.65952">
        <ele>63.599</ele>
        <time>2011-04-07T08:25:39Z</time>
      </trkpt>
      <trkpt lat="48.51402" lon="-4.65791">
        <ele>64.141</ele>
        <time>2011-04-07T08:26:04Z</time>
      </trkpt>
      <trkpt lat="48.51292" lon="-4.65662">
        <ele>62.133</ele>
        <time>2011-04-07T08:26:24Z</time>
      </trkpt>
      <trkpt lat="48.5114" lon="-4.65532">
        <ele>65.062</ele>
        <time>2011-04-07T08:26:48Z</time>
      </trkpt>
      <trkpt lat="48.51125" lon="-4.6552">
        <ele>66.371</ele>
        <time>2011-04-07T08:26:51Z</time>
      </trkpt>
      <trkpt lat="48.51035" lon="-4.65448">
        <ele>69.45</ele>
        <time>2011-04-07T08:27:08Z</time>
      </trkpt>
      <trkpt lat="48.50909" lon="-4.6537">
        <ele>71.825</ele>
        <time>2011-04-07T08:27:30Z</time>
      </trkpt>
      <trkpt lat="48.50777" lon="-4.65365">
        <ele>72.007</ele>
        <time>2011-04-07T08:27:51Z</time>
      </trkpt>
      <trkpt lat="48.50682" lon="-4.65371">
        <ele>68.546</ele>
        <time>2011-04-07T08:28:04Z</time>
      </trkpt>
      <trkpt lat="48.50674" lon="-4.65372">
        <ele>68.289</ele>
        <time>2011-04-07T08:28:05Z</time>
      </trkpt>
      <trkpt lat="48.50629" lon="-4.65374">
        <ele>64.435</ele>
        <time>2011-04-07T08:28:10Z</time>
      </trkpt>
      <trkpt lat="48.50581" lon="-4.65377">
        <ele>61.617</ele>
        <time>2011-04-07T08:28:15Z</time>
      </trkpt>
      <trkpt lat="48.50495" lon="-4.65382">
        <ele>58.248</ele>
        <time>2011-04-07T08:28:24Z</time>
      </trkpt>
      <trkpt lat="48.50347" lon="-4.65374">
        <ele>57.541</ele>
        <time>2011-04-07T08:28:41Z</time>
      </trkpt>
      <trkpt lat="48.50272" lon="-4.65307">
        <ele>59.932</ele>
        <time>2011-04-07T08:28:54Z</time>
      </trkpt>
      <trkpt lat="48.50174" lon="-4.65128">
        <ele>62.487</ele>
        <time>2011-04-07T08:29:18Z</time>
      </trkpt>
      <trkpt lat="48.50095" lon="-4.65001">
        <ele>63.451</ele>
        <time>2011-04-07T08:29:39Z</time>
      </trkpt>
      <trkpt lat="48.4997" lon="-4.64928">
        <ele>65.69</ele>
        <time>2011-04-07T08:29:58Z</time>
      </trkpt>
      <trkpt lat="48.49816" lon="-4.64889">
        <ele>67.518</ele>
        <time>2011-04-07T08:30:22Z</time>
      </trkpt>
      <trkpt lat="48.49696" lon="-4.64887">
        <ele>71.079</ele>
        <time>2011-04-07T08:30:43Z</time>
      </trkpt>
      <trkpt lat="48.49588" lon="-4.64846">
        <ele>71.288</ele>
        <time>2011-04-07T08:31:03Z</time>
      </trkpt>
      <trkpt lat="48.49458" lon="-4.64736">
        <ele>71.048</ele>
        <time>2011-04-07T08:31:23Z</time>
      </trkpt>
      <trkpt lat="48.493" lon="-4.64648">
        <ele>71.16</ele>
        <time>2011-04-07T08:31:47Z</time>
      </trkpt>
      <trkpt lat="48.49117" lon="-4.64587">
        <ele>73.455</ele>
        <time>2011-04-07T08:32:15Z</time>
      </trkpt>
      <trkpt lat="48.48905" lon="-4.6454">
        <ele>73.743</ele>
        <time>2011-04-07T08:32:46Z</time>
      </trkpt>
      <trkpt lat="48.48702" lon="-4.64499">
        <ele>76.006</ele>
        <time>2011-04-07T08:33:15Z</time>
      </trkpt>
      <trkpt lat="48.48464" lon="-4.64436">
        <ele>77.831</ele>
        <time>2011-04-07T08:33:50Z</time>
      </trkpt>
      <trkpt lat="48.48345" lon="-4.64366">
        <ele>74.578</ele>
        <time>2011-04-07T08:34:07Z</time>
      </trkpt>
      <trkpt lat="48.48172" lon="-4.64266">
        <ele>72.807</ele>
        <time>2011-04-07T08:34:30Z</time>
      </trkpt>
      <trkpt lat="48.48002" lon="-4.64171">
        <ele>75.611</ele>
        <time>2011-04-07T08:34:56Z</time>
      </trkpt>
      <trkpt lat="48.47928" lon="-4.64125">
        <ele>78.845</ele>
        <time>2011-04-07T08:35:11Z</time>
      </trkpt>
      <trkpt lat="48.47799" lon="-4.64031">
        <ele>76.715</ele>
        <time>2011-04-07T08:35:30Z</time>
      </trkpt>
      <trkpt lat="48.47695" lon="-4.64016">
        <ele>76.969</ele>
        <time>2011-04-07T08:35:45Z</time>
      </trkpt>
      <trkpt lat="48.47554" lon="-4.64026">
        <ele>79.801</ele>
        <time>2011-04-07T08:36:07Z</time>
      </trkpt>
      <trkpt lat="48.47452" lon="-4.64039">
        <ele>82.356</ele>
        <time>2011-04-07T08:36:25Z</time>
      </trkpt>
      <trkpt lat="48.47433" lon="-4.64039">
        <ele>82.396</ele>
        <time>2011-04-07T08:36:29Z</time>
      </trkpt>
      <trkpt lat="48.474" lon="-4.64022">
        <ele>82.131</ele>
        <time>2011-04-07T08:36:36Z</time>
      </trkpt>
      <trkpt lat="48.47373" lon="-4.63999">
        <ele>82.16</ele>
        <time>2011-04-07T08:36:42Z</time>
      </trkpt>
      <trkpt lat="48.47331" lon="-4.63958">
        <ele>83.753</ele>
        <time>2011-04-07T08:36:52Z</time>
      </trkpt>
      <trkpt lat="48.47326" lon="-4.6394">
        <ele>84.335</ele>
        <time>2011-04-07T08:36:56Z</time>
      </trkpt>
      <trkpt lat="48.47324" lon="-4.63865">
        <ele>85.445</ele>
        <time>2011-04-07T08:37:14Z</time>
      </trkpt>
    </trkseg>
  </trk>
</gpx>